createdAt,value
2023-04-09T00:00:07.135Z,2.66
2023-04-09T00:00:17.659Z,2.64
2023-04-09T00:00:28.134Z,2.64
2023-04-09T00:00:38.641Z,2.64
2023-04-09T00:00:49.142Z,2.61
2023-04-09T00:00:59.655Z,2.61
2023-04-09T00:01:10.163Z,2.60
2023-04-09T00:01:20.681Z,2.60
2023-04-09T00:01:31.214Z,2.60
2023-04-09T00:01:41.689Z,2.60
2023-04-09T00:01:52.248Z,2.57
2023-04-09T00:02:02.723Z,2.59
2023-04-09T00:02:13.284Z,2.57
2023-04-09T00:02:23.712Z,2.57
2023-04-09T00:02:34.273Z,2.56
2023-04-09T00:02:44.896Z,2.56
2023-04-09T00:02:55.284Z,2.54
2023-04-09T00:03:05.796Z,2.53
2023-04-09T00:03:16.308Z,2.53
2023-04-09T00:03:26.848Z,2.52
2023-04-09T00:03:37.311Z,2.49
2023-04-09T00:03:47.818Z,2.49
2023-04-09T00:03:58.448Z,2.45
2023-04-09T00:04:08.877Z,2.46
2023-04-09T00:04:19.297Z,2.46
2023-04-09T00:04:29.830Z,2.45
2023-04-09T00:04:40.417Z,2.45
2023-04-09T00:04:50.844Z,2.46
2023-04-09T00:05:01.341Z,2.43
2023-04-09T00:05:11.804Z,2.46
2023-04-09T00:05:22.322Z,2.43
2023-04-09T00:05:32.826Z,2.43
2023-04-09T00:05:43.332Z,2.43
2023-04-09T00:05:53.856Z,2.46
2023-04-09T00:06:04.341Z,2.46
2023-04-09T00:06:14.855Z,2.46
2023-04-09T00:06:25.364Z,2.46
2023-04-09T00:06:35.864Z,2.46
2023-04-09T00:06:46.368Z,2.45
2023-04-09T00:06:56.898Z,2.43
2023-04-09T00:07:07.389Z,2.45
2023-04-09T00:07:17.915Z,2.43
2023-04-09T00:07:28.402Z,2.45
2023-04-09T00:07:38.892Z,2.45
2023-04-09T00:07:49.410Z,2.43
2023-04-09T00:07:59.917Z,2.43
2023-04-09T00:08:10.414Z,2.43
2023-04-09T00:08:20.929Z,2.43
2023-04-09T00:08:31.451Z,2.42
2023-04-09T00:08:41.933Z,2.42
2023-04-09T00:08:52.784Z,2.42
2023-04-09T00:09:02.986Z,2.39
2023-04-09T00:09:13.441Z,2.41
2023-04-09T00:09:23.958Z,2.41
2023-04-09T00:09:34.461Z,2.39
2023-04-09T00:09:44.959Z,2.39
2023-04-09T00:09:55.470Z,2.38
2023-04-09T00:10:05.976Z,2.35
2023-04-09T00:10:16.479Z,2.38
2023-04-09T00:10:26.996Z,2.35
2023-04-09T00:10:37.511Z,2.35
2023-04-09T00:10:48.013Z,2.35
2023-04-09T00:10:58.494Z,2.35
2023-04-09T00:11:09.004Z,2.35
2023-04-09T00:11:19.505Z,2.34
2023-04-09T00:11:30.015Z,2.34
2023-04-09T00:11:40.518Z,2.34
2023-04-09T00:11:51.030Z,2.31
2023-04-09T00:12:01.530Z,2.31
2023-04-09T00:12:12.034Z,2.30
2023-04-09T00:12:22.541Z,2.30
2023-04-09T00:12:33.044Z,2.31
2023-04-09T00:12:43.578Z,2.30
2023-04-09T00:12:54.051Z,2.30
2023-04-09T00:13:04.567Z,2.28
2023-04-09T00:13:16.951Z,2.30
2023-04-09T00:13:38.511Z,2.27
2023-04-09T00:13:39.685Z,2.28
2023-04-09T00:13:46.593Z,2.25
2023-04-09T00:13:57.088Z,2.25
2023-04-09T00:14:07.603Z,2.25
2023-04-09T00:14:18.100Z,2.25
2023-04-09T00:14:28.605Z,2.24
2023-04-09T00:14:39.141Z,2.24
2023-04-09T00:14:49.620Z,2.24
2023-04-09T00:15:00.202Z,2.25
2023-04-09T00:15:15.056Z,2.25
2023-04-09T00:15:30.730Z,2.23
2023-04-09T00:15:32.641Z,2.24
2023-04-09T00:15:42.158Z,2.23
2023-04-09T00:15:52.733Z,2.25
2023-04-09T00:16:03.203Z,2.24
2023-04-09T00:16:13.696Z,2.24
2023-04-09T00:16:24.188Z,2.24
2023-04-09T00:16:34.746Z,2.23
2023-04-09T00:16:45.225Z,2.21
2023-04-09T00:16:55.677Z,2.23
2023-04-09T00:17:06.219Z,2.20
2023-04-09T00:17:16.705Z,2.21
2023-04-09T00:17:27.196Z,2.23
2023-04-09T00:17:37.774Z,2.23
2023-04-09T00:17:48.257Z,2.21
2023-04-09T00:17:58.833Z,2.23
2023-04-09T00:18:09.222Z,2.21
2023-04-09T00:18:19.736Z,2.23
2023-04-09T00:18:30.254Z,2.23
2023-04-09T00:18:40.740Z,2.23
2023-04-09T00:18:51.393Z,2.23
2023-04-09T00:19:01.753Z,2.21
2023-04-09T00:19:12.268Z,2.23
2023-04-09T00:19:22.762Z,2.21
2023-04-09T00:19:33.279Z,2.21
2023-04-09T00:19:43.770Z,2.18
2023-04-09T00:19:54.289Z,2.20
2023-04-09T00:20:04.795Z,2.20
2023-04-09T00:20:15.354Z,2.18
2023-04-09T00:20:25.802Z,2.18
2023-04-09T00:20:36.296Z,2.16
2023-04-09T00:20:46.810Z,2.16
2023-04-09T00:20:57.309Z,2.14
2023-04-09T00:21:07.840Z,2.12
2023-04-09T00:21:18.333Z,2.10
2023-04-09T00:21:28.825Z,2.14
2023-04-09T00:21:39.327Z,2.16
2023-04-09T00:21:49.845Z,2.12
2023-04-09T00:22:00.341Z,2.16
2023-04-09T00:22:10.849Z,2.17
2023-04-09T00:22:21.352Z,2.20
2023-04-09T00:22:31.848Z,2.20
2023-04-09T00:22:42.365Z,2.24
2023-04-09T00:22:52.870Z,2.25
2023-04-09T00:23:03.372Z,2.28
2023-04-09T00:23:13.872Z,2.27
2023-04-09T00:23:24.403Z,2.30
2023-04-09T00:23:34.888Z,2.28
2023-04-09T00:23:45.404Z,2.30
2023-04-09T00:23:55.903Z,2.30
2023-04-09T00:24:06.400Z,2.30
2023-04-09T00:24:16.898Z,2.30
2023-04-09T00:24:27.424Z,2.30
2023-04-09T00:24:37.908Z,2.31
2023-04-09T00:24:48.414Z,2.31
2023-04-09T00:24:58.923Z,2.34
2023-04-09T00:25:09.619Z,2.34
2023-04-09T00:25:20.046Z,2.35
2023-04-09T00:25:30.456Z,2.34
2023-04-09T00:25:40.977Z,2.35
2023-04-09T00:25:51.456Z,2.36
2023-04-09T00:26:01.988Z,2.36
2023-04-09T00:26:12.460Z,2.36
2023-04-09T00:26:22.953Z,2.39
2023-04-09T00:26:33.466Z,2.36
2023-04-09T00:26:43.978Z,2.38
2023-04-09T00:26:54.473Z,2.36
2023-04-09T00:27:05.003Z,2.38
2023-04-09T00:27:15.493Z,2.38
2023-04-09T00:27:25.989Z,2.38
2023-04-09T00:27:36.493Z,2.35
2023-04-09T00:27:47.086Z,2.35
2023-04-09T00:27:57.516Z,2.36
2023-04-09T00:28:08.004Z,2.34
2023-04-09T00:28:18.513Z,2.34
2023-04-09T00:28:29.014Z,2.31
2023-04-09T00:28:39.513Z,2.30
2023-04-09T00:28:50.138Z,2.30
2023-04-09T00:29:00.525Z,2.28
2023-04-09T00:29:11.024Z,2.28
2023-04-09T00:29:21.536Z,2.28
2023-04-09T00:29:32.041Z,2.27
2023-04-09T00:29:42.547Z,2.27
2023-04-09T00:29:53.061Z,2.27
2023-04-09T00:30:03.576Z,2.27
2023-04-09T00:30:14.080Z,2.27
2023-04-09T00:30:24.578Z,2.25
2023-04-09T00:30:35.063Z,2.25
2023-04-09T00:30:45.570Z,2.25
2023-04-09T00:30:56.084Z,2.25
2023-04-09T00:31:06.581Z,2.24
2023-04-09T00:31:18.345Z,2.24
2023-04-09T00:31:27.641Z,2.23
2023-04-09T00:31:38.143Z,2.23
2023-04-09T00:31:48.675Z,2.23
2023-04-09T00:31:59.138Z,2.21
2023-04-09T00:32:09.624Z,2.20
2023-04-09T00:32:20.121Z,2.20
2023-04-09T00:32:30.630Z,2.18
2023-04-09T00:32:41.165Z,2.20
2023-04-09T00:32:51.654Z,2.18
2023-04-09T00:33:02.141Z,2.17
2023-04-09T00:33:12.617Z,2.17
2023-04-09T00:33:23.123Z,2.16
2023-04-09T00:33:33.625Z,2.12
2023-04-09T00:33:44.146Z,2.14
2023-04-09T00:33:54.668Z,2.10
2023-04-09T00:34:05.143Z,2.12
2023-04-09T00:34:15.658Z,2.12
2023-04-09T00:34:26.139Z,2.10
2023-04-09T00:34:36.655Z,2.12
2023-04-09T00:34:47.148Z,2.10
2023-04-09T00:34:57.645Z,2.12
2023-04-09T00:35:08.163Z,2.10
2023-04-09T00:35:18.664Z,2.10
2023-04-09T00:35:29.168Z,2.10
2023-04-09T00:35:39.695Z,2.10
2023-04-09T00:35:50.191Z,2.09
2023-04-09T00:36:00.697Z,2.07
2023-04-09T00:36:11.190Z,2.07
2023-04-09T00:36:21.680Z,2.07
2023-04-09T00:36:32.169Z,2.06
2023-04-09T00:36:42.680Z,2.05
2023-04-09T00:36:53.186Z,2.05
2023-04-09T00:37:03.688Z,2.05
2023-04-09T00:37:14.184Z,2.05
2023-04-09T00:37:24.697Z,2.05
2023-04-09T00:37:35.190Z,2.05
2023-04-09T00:37:45.707Z,2.05
2023-04-09T00:37:56.280Z,2.03
2023-04-09T00:38:06.738Z,2.03
2023-04-09T00:38:17.204Z,2.03
2023-04-09T00:38:27.716Z,2.03
2023-04-09T00:38:38.230Z,2.00
2023-04-09T00:38:48.746Z,2.02
2023-04-09T00:38:59.223Z,2.02
2023-04-09T00:39:09.726Z,2.02
2023-04-09T00:39:20.223Z,2.00
2023-04-09T00:39:30.734Z,1.99
2023-04-09T00:39:41.247Z,1.99
2023-04-09T00:39:51.755Z,2.00
2023-04-09T00:40:02.246Z,1.98
2023-04-09T00:40:12.754Z,1.99
2023-04-09T00:40:23.289Z,1.98
2023-04-09T00:40:33.773Z,1.98
2023-04-09T00:40:44.274Z,1.95
2023-04-09T00:40:54.770Z,1.95
2023-04-09T00:41:05.266Z,1.95
2023-04-09T00:41:15.777Z,1.95
2023-04-09T00:41:26.273Z,1.95
2023-04-09T00:41:36.777Z,1.95
2023-04-09T00:41:47.279Z,1.98
2023-04-09T00:41:57.792Z,1.95
2023-04-09T00:42:08.299Z,1.93
2023-04-09T00:42:18.807Z,1.95
2023-04-09T00:42:29.297Z,1.95
2023-04-09T00:42:39.800Z,1.95
2023-04-09T00:42:50.302Z,1.91
2023-04-09T00:43:00.836Z,1.95
2023-04-09T00:43:11.309Z,1.93
2023-04-09T00:43:21.846Z,1.95
2023-04-09T00:43:32.321Z,1.95
2023-04-09T00:43:42.832Z,1.95
2023-04-09T00:43:53.347Z,1.95
2023-04-09T00:44:03.832Z,1.98
2023-04-09T00:44:14.340Z,1.99
2023-04-09T00:44:24.851Z,2.03
2023-04-09T00:44:35.338Z,2.03
2023-04-09T00:44:45.862Z,2.07
2023-04-09T00:44:56.368Z,2.09
2023-04-09T00:45:06.864Z,2.12
2023-04-09T00:45:17.374Z,2.14
2023-04-09T00:45:27.922Z,2.16
2023-04-09T00:45:38.412Z,2.14
2023-04-09T00:45:48.880Z,2.16
2023-04-09T00:45:59.419Z,2.17
2023-04-09T00:46:09.947Z,2.20
2023-04-09T00:46:20.412Z,2.18
2023-04-09T00:46:30.895Z,2.20
2023-04-09T00:46:41.399Z,2.21
2023-04-09T00:46:51.900Z,2.20
2023-04-09T00:47:02.414Z,2.20
2023-04-09T00:47:12.927Z,2.21
2023-04-09T00:47:23.456Z,2.23
2023-04-09T00:47:33.945Z,2.23
2023-04-09T00:47:44.472Z,2.24
2023-04-09T00:47:55.016Z,2.25
2023-04-09T00:48:05.454Z,2.24
2023-04-09T00:48:15.948Z,2.25
2023-04-09T00:48:26.460Z,2.25
2023-04-09T00:48:36.966Z,2.25
2023-04-09T00:48:47.594Z,2.25
2023-04-09T00:48:57.973Z,2.24
2023-04-09T00:49:08.495Z,2.25
2023-04-09T00:49:18.991Z,2.24
2023-04-09T00:49:29.498Z,2.23
2023-04-09T00:49:40.008Z,2.20
2023-04-09T00:49:50.496Z,2.21
2023-04-09T00:50:01.021Z,2.21
2023-04-09T00:50:11.522Z,2.18
2023-04-09T00:50:22.029Z,2.20
2023-04-09T00:50:32.526Z,2.18
2023-04-09T00:50:43.044Z,2.17
2023-04-09T00:50:53.536Z,2.18
2023-04-09T00:51:04.046Z,2.16
2023-04-09T00:51:14.550Z,2.16
2023-04-09T00:51:25.079Z,2.17
2023-04-09T00:51:35.569Z,2.16
2023-04-09T00:51:46.072Z,2.17
2023-04-09T00:51:56.572Z,2.18
2023-04-09T00:52:07.086Z,2.17
2023-04-09T00:52:17.584Z,2.17
2023-04-09T00:52:28.118Z,2.18
2023-04-09T00:52:38.606Z,2.18
2023-04-09T00:52:49.109Z,2.16
2023-04-09T00:52:59.618Z,2.16
2023-04-09T00:53:10.125Z,2.16
2023-04-09T00:53:20.630Z,2.16
2023-04-09T00:53:31.138Z,2.16
2023-04-09T00:53:41.620Z,2.17
2023-04-09T00:53:52.128Z,2.20
2023-04-09T00:54:02.634Z,2.24
2023-04-09T00:54:13.133Z,2.25
2023-04-09T00:54:23.640Z,2.30
2023-04-09T00:54:34.147Z,2.30
2023-04-09T00:54:44.651Z,2.30
2023-04-09T00:54:55.161Z,2.34
2023-04-09T00:55:05.680Z,2.35
2023-04-09T00:55:16.176Z,2.35
2023-04-09T00:55:26.683Z,2.38
2023-04-09T00:55:37.181Z,2.36
2023-04-09T00:55:47.705Z,2.38
2023-04-09T00:55:58.199Z,2.39
2023-04-09T00:56:08.748Z,2.39
2023-04-09T00:56:19.212Z,2.41
2023-04-09T00:56:29.709Z,2.39
2023-04-09T00:56:40.220Z,2.39
2023-04-09T00:56:50.731Z,2.39
2023-04-09T00:57:01.278Z,2.36
2023-04-09T00:57:11.739Z,2.39
2023-04-09T00:57:22.246Z,2.38
2023-04-09T00:57:32.754Z,2.36
2023-04-09T00:57:43.262Z,2.35
2023-04-09T00:57:53.790Z,2.35
2023-04-09T00:58:04.277Z,2.35
2023-04-09T00:58:14.771Z,2.35
2023-04-09T00:58:25.280Z,2.34
2023-04-09T00:58:35.805Z,2.30
2023-04-09T00:58:46.320Z,2.30
2023-04-09T00:58:56.796Z,2.30
2023-04-09T00:59:07.316Z,2.28
2023-04-09T00:59:17.830Z,2.27
2023-04-09T00:59:28.314Z,2.28
2023-04-09T00:59:38.821Z,2.25
2023-04-09T00:59:49.334Z,2.24
2023-04-09T00:59:59.827Z,2.25
2023-04-09T01:00:10.361Z,2.30
2023-04-09T01:00:20.878Z,2.34
2023-04-09T01:00:31.352Z,2.35
2023-04-09T01:00:41.893Z,2.38
2023-04-09T01:00:52.412Z,2.41
2023-04-09T01:01:02.942Z,2.42
2023-04-09T01:01:13.443Z,2.42
2023-04-09T01:01:23.962Z,2.43
2023-04-09T01:01:34.530Z,2.43
2023-04-09T01:01:44.923Z,2.45
2023-04-09T01:01:55.452Z,2.45
2023-04-09T01:02:05.993Z,2.46
2023-04-09T01:02:16.473Z,2.45
2023-04-09T01:02:27.010Z,2.45
2023-04-09T01:02:37.568Z,2.45
2023-04-09T01:02:48.199Z,2.43
2023-04-09T01:02:58.456Z,2.43
2023-04-09T01:03:08.993Z,2.43
2023-04-09T01:03:19.521Z,2.41
2023-04-09T01:03:30.008Z,2.39
2023-04-09T01:03:40.544Z,2.38
2023-04-09T01:03:50.964Z,2.35
2023-04-09T01:04:01.499Z,2.34
2023-04-09T01:04:11.964Z,2.31
2023-04-09T01:04:22.481Z,2.30
2023-04-09T01:04:32.981Z,2.28
2023-04-09T01:04:43.493Z,2.27
2023-04-09T01:04:53.981Z,2.27
2023-04-09T01:05:04.530Z,2.25
2023-04-09T01:05:15.006Z,2.25
2023-04-09T01:05:25.494Z,2.23
2023-04-09T01:05:36.004Z,2.21
2023-04-09T01:05:46.513Z,2.21
2023-04-09T01:05:57.001Z,2.23
2023-04-09T01:06:07.512Z,2.21
2023-04-09T01:06:18.009Z,2.23
2023-04-09T01:06:28.511Z,2.20
2023-04-09T01:06:39.026Z,2.21
2023-04-09T01:06:49.533Z,2.20
2023-04-09T01:07:00.038Z,2.20
2023-04-09T01:07:10.537Z,2.18
2023-04-09T01:07:21.073Z,2.20
2023-04-09T01:07:31.542Z,2.17
2023-04-09T01:07:42.050Z,2.14
2023-04-09T01:07:52.552Z,2.16
2023-04-09T01:08:03.080Z,2.14
2023-04-09T01:08:13.558Z,2.14
2023-04-09T01:08:24.084Z,2.12
2023-04-09T01:08:34.575Z,2.12
2023-04-09T01:08:45.125Z,2.10
2023-04-09T01:08:55.579Z,2.07
2023-04-09T01:09:06.081Z,2.09
2023-04-09T01:09:16.601Z,2.05
2023-04-09T01:09:27.105Z,2.05
2023-04-09T01:09:37.591Z,2.05
2023-04-09T01:09:48.097Z,2.02
2023-04-09T01:09:58.604Z,1.99
2023-04-09T01:10:09.118Z,2.02
2023-04-09T01:10:19.617Z,1.99
2023-04-09T01:10:30.137Z,1.95
2023-04-09T01:10:40.718Z,1.91
2023-04-09T01:10:51.159Z,1.90
2023-04-09T01:11:01.658Z,1.87
2023-04-09T01:11:12.144Z,1.88
2023-04-09T01:11:22.667Z,1.87
2023-04-09T01:11:33.170Z,1.84
2023-04-09T01:11:43.671Z,1.81
2023-04-09T01:11:54.202Z,1.84
2023-04-09T01:12:04.685Z,1.83
2023-04-09T01:12:15.189Z,1.80
2023-04-09T01:12:25.714Z,1.80
2023-04-09T01:12:36.208Z,1.80
2023-04-09T01:12:46.715Z,1.77
2023-04-09T01:12:57.217Z,1.79
2023-04-09T01:13:07.716Z,1.76
2023-04-09T01:13:18.220Z,1.76
2023-04-09T01:13:28.751Z,1.73
2023-04-09T01:13:39.243Z,1.72
2023-04-09T01:13:49.744Z,1.70
2023-04-09T01:14:00.281Z,1.69
2023-04-09T01:14:10.758Z,1.72
2023-04-09T01:14:21.255Z,1.72
2023-04-09T01:14:31.793Z,1.73
2023-04-09T01:14:42.287Z,1.76
2023-04-09T01:14:52.787Z,1.79
2023-04-09T01:15:03.299Z,1.80
2023-04-09T01:15:13.798Z,1.81
2023-04-09T01:15:24.304Z,1.81
2023-04-09T01:15:34.800Z,1.83
2023-04-09T01:15:45.297Z,1.86
2023-04-09T01:15:55.801Z,1.87
2023-04-09T01:16:06.346Z,1.88
2023-04-09T01:16:16.858Z,1.90
2023-04-09T01:16:27.396Z,1.88
2023-04-09T01:16:37.849Z,1.88
2023-04-09T01:16:48.379Z,1.88
2023-04-09T01:16:58.929Z,1.88
2023-04-09T01:17:09.352Z,1.87
2023-04-09T01:17:19.832Z,1.87
2023-04-09T01:17:30.357Z,1.87
2023-04-09T01:17:40.972Z,1.88
2023-04-09T01:17:51.354Z,1.86
2023-04-09T01:18:01.877Z,1.86
2023-04-09T01:18:12.366Z,1.84
2023-04-09T01:18:22.867Z,1.84
2023-04-09T01:18:33.374Z,1.84
2023-04-09T01:18:43.878Z,1.81
2023-04-09T01:18:54.525Z,1.80
2023-04-09T01:19:04.884Z,1.77
2023-04-09T01:19:15.398Z,1.77
2023-04-09T01:19:25.897Z,1.79
2023-04-09T01:19:36.415Z,1.76
2023-04-09T01:19:46.922Z,1.73
2023-04-09T01:19:57.419Z,1.73
2023-04-09T01:20:07.932Z,1.73
2023-04-09T01:20:18.436Z,1.72
2023-04-09T01:20:28.941Z,1.72
2023-04-09T01:20:39.467Z,1.72
2023-04-09T01:20:49.964Z,1.69
2023-04-09T01:21:00.457Z,1.69
2023-04-09T01:21:10.964Z,1.68
2023-04-09T01:21:21.474Z,1.66
2023-04-09T01:21:31.985Z,1.68
2023-04-09T01:25:36.141Z,1.44
2023-04-09T01:25:46.617Z,1.41
2023-04-09T01:25:57.132Z,1.41
2023-04-09T01:26:07.607Z,1.41
2023-04-09T01:26:18.117Z,1.40
2023-04-09T01:26:28.626Z,1.37
2023-04-09T01:26:39.128Z,1.40
2023-04-09T01:26:49.633Z,1.37
2023-04-09T01:27:00.330Z,1.37
2023-04-09T01:27:10.630Z,1.36
2023-04-09T01:27:21.133Z,1.37
2023-04-09T01:27:31.643Z,1.36
2023-04-09T01:27:42.144Z,1.37
2023-04-09T01:27:52.642Z,1.37
2023-04-09T01:28:03.146Z,1.36
2023-04-09T01:28:13.652Z,1.40
2023-04-09T01:28:24.158Z,1.40
2023-04-09T01:28:34.664Z,1.37
2023-04-09T01:28:45.159Z,1.37
2023-04-09T01:28:55.675Z,1.36
2023-04-09T01:29:06.179Z,1.36
2023-04-09T01:29:16.680Z,1.36
2023-04-09T01:29:27.182Z,1.34
2023-04-09T01:29:37.685Z,1.33
2023-04-09T01:29:48.188Z,1.33
2023-04-09T01:29:58.693Z,1.33
2023-04-09T01:30:09.192Z,1.32
2023-04-09T01:30:19.699Z,1.30
2023-04-09T01:30:30.251Z,1.30
2023-04-09T01:30:40.769Z,1.30
2023-04-09T01:30:51.230Z,1.30
2023-04-09T01:31:01.757Z,1.29
2023-04-09T01:31:12.272Z,1.27
2023-04-09T01:31:22.720Z,1.27
2023-04-09T01:31:33.220Z,1.26
2023-04-09T01:31:43.717Z,1.26
2023-04-09T01:31:54.232Z,1.24
2023-04-09T01:32:04.731Z,1.24
2023-04-09T01:32:15.232Z,1.23
2023-04-09T01:32:25.817Z,1.24
2023-04-09T01:32:36.259Z,1.22
2023-04-09T01:32:46.756Z,1.22
2023-04-09T01:32:57.278Z,1.20
2023-04-09T01:33:07.764Z,1.22
2023-04-09T01:33:18.272Z,1.20
2023-04-09T01:33:28.762Z,1.20
2023-04-09T01:33:39.285Z,1.20
2023-04-09T01:33:49.776Z,1.20
2023-04-09T01:34:00.283Z,1.16
2023-04-09T01:34:10.781Z,1.18
2023-04-09T01:34:21.283Z,1.15
2023-04-09T01:34:31.803Z,1.15
2023-04-09T01:34:42.297Z,1.15
2023-04-09T01:34:52.809Z,1.14
2023-04-09T01:35:03.311Z,1.12
2023-04-09T01:35:13.838Z,1.11
2023-04-09T01:35:24.317Z,1.11
2023-04-09T01:35:34.872Z,1.09
2023-04-09T01:35:45.355Z,1.08
2023-04-09T01:35:55.868Z,1.08
2023-04-09T01:36:06.394Z,1.08
2023-04-09T01:36:16.849Z,1.08
2023-04-09T01:36:27.356Z,1.04
2023-04-09T01:36:37.869Z,1.04
2023-04-09T01:36:48.383Z,1.04
2023-04-09T01:36:58.882Z,1.00
2023-04-09T01:37:09.428Z,1.00
2023-04-09T01:37:19.895Z,0.98
2023-04-09T01:37:30.404Z,0.97
2023-04-09T01:37:40.985Z,0.97
2023-04-09T01:37:51.438Z,0.97
2023-04-09T01:38:01.915Z,0.96
2023-04-09T01:38:12.429Z,0.94
2023-04-09T01:38:22.932Z,0.94
2023-04-09T01:38:33.435Z,0.96
2023-04-09T01:38:43.947Z,0.93
2023-04-09T01:38:54.755Z,0.94
2023-04-09T01:39:04.976Z,0.93
2023-04-09T01:39:15.468Z,0.93
2023-04-09T01:39:25.969Z,0.94
2023-04-09T01:39:36.476Z,0.93
2023-04-09T01:39:47.008Z,0.93
2023-04-09T01:39:57.487Z,0.93
2023-04-09T01:40:07.988Z,0.91
2023-04-09T01:40:18.490Z,0.93
2023-04-09T01:40:29.006Z,0.90
2023-04-09T01:40:39.509Z,0.90
2023-04-09T01:40:50.021Z,0.90
2023-04-09T01:41:00.537Z,0.90
2023-04-09T01:41:11.032Z,0.90
2023-04-09T01:41:21.521Z,0.90
2023-04-09T01:41:32.028Z,0.88
2023-04-09T01:41:42.536Z,0.90
2023-04-09T01:41:53.042Z,0.88
2023-04-09T01:42:03.550Z,0.88
2023-04-09T01:42:14.059Z,0.87
2023-04-09T01:42:24.568Z,0.87
2023-04-09T01:42:35.067Z,0.87
2023-04-09T01:42:45.567Z,0.90
2023-04-09T01:42:56.066Z,0.90
2023-04-09T01:43:06.582Z,0.91
2023-04-09T01:43:17.075Z,0.91
2023-04-09T01:43:27.585Z,0.93
2023-04-09T01:43:38.128Z,0.93
2023-04-09T01:43:48.596Z,0.91
2023-04-09T01:43:59.095Z,0.93
2023-04-09T01:44:09.604Z,0.93
2023-04-09T01:44:20.138Z,0.91
2023-04-09T01:44:30.623Z,0.91
2023-04-09T01:44:41.134Z,0.91
2023-04-09T01:44:51.618Z,0.90
2023-04-09T01:45:02.338Z,0.88
2023-04-09T01:45:12.638Z,0.87
2023-04-09T01:45:23.134Z,0.88
2023-04-09T01:45:33.669Z,0.86
2023-04-09T01:45:44.175Z,0.87
2023-04-09T01:45:54.727Z,0.86
2023-04-09T01:46:05.203Z,0.84
2023-04-09T01:46:15.661Z,0.86
2023-04-09T01:46:26.187Z,0.84
2023-04-09T01:46:36.712Z,0.84
2023-04-09T01:46:47.164Z,0.83
2023-04-09T01:46:57.668Z,0.80
2023-04-09T01:47:08.199Z,0.79
2023-04-09T01:47:18.674Z,0.80
2023-04-09T01:47:29.213Z,0.80
2023-04-09T01:47:39.722Z,0.79
2023-04-09T01:47:50.277Z,0.79
2023-04-09T01:48:00.768Z,0.76
2023-04-09T01:48:11.209Z,0.75
2023-04-09T01:48:21.696Z,0.76
2023-04-09T01:48:32.212Z,0.75
2023-04-09T01:48:42.705Z,0.75
2023-04-09T01:48:53.319Z,0.75
2023-04-09T01:49:03.727Z,0.75
2023-04-09T01:49:14.223Z,0.73
2023-04-09T01:49:24.724Z,0.72
2023-04-09T01:49:35.233Z,0.70
2023-04-09T01:49:45.791Z,0.72
2023-04-09T01:49:56.242Z,0.70
2023-04-09T01:50:06.749Z,0.69
2023-04-09T01:50:17.263Z,0.69
2023-04-09T01:50:27.767Z,0.72
2023-04-09T01:50:38.264Z,0.70
2023-04-09T01:50:48.771Z,0.70
2023-04-09T01:50:59.287Z,0.70
2023-04-09T01:51:09.780Z,0.70
2023-04-09T01:51:20.277Z,0.72
2023-04-09T01:51:30.784Z,0.73
2023-04-09T01:51:41.291Z,0.73
2023-04-09T01:51:51.791Z,0.76
2023-04-09T01:52:02.294Z,0.75
2023-04-09T01:52:12.796Z,0.75
2023-04-09T01:52:23.821Z,0.78
2023-04-09T01:52:34.294Z,0.78
2023-04-09T01:52:44.804Z,0.79
2023-04-09T01:52:55.306Z,0.84
2023-04-09T01:53:05.811Z,0.83
2023-04-09T01:53:16.318Z,0.87
2023-04-09T01:53:26.815Z,0.88
2023-04-09T01:53:37.372Z,0.88
2023-04-09T01:53:47.831Z,0.91
2023-04-09T01:53:58.334Z,0.91
2023-04-09T01:54:08.834Z,0.94
2023-04-09T01:54:19.336Z,0.93
2023-04-09T01:54:29.864Z,0.96
2023-04-09T01:54:40.366Z,0.97
2023-04-09T01:54:50.854Z,0.97
2023-04-09T01:55:01.367Z,0.97
2023-04-09T01:55:11.856Z,0.98
2023-04-09T01:55:22.366Z,1.00
2023-04-09T01:55:32.870Z,1.02
2023-04-09T01:55:43.375Z,1.04
2023-04-09T01:55:53.890Z,1.04
2023-04-09T01:56:04.405Z,1.06
2023-04-09T01:56:14.905Z,1.06
2023-04-09T01:56:25.388Z,1.06
2023-04-09T01:56:35.883Z,1.09
2023-04-09T01:56:46.401Z,1.06
2023-04-09T01:56:56.910Z,1.09
2023-04-09T01:57:07.425Z,1.11
2023-04-09T01:57:17.925Z,1.09
2023-04-09T01:57:28.413Z,1.09
2023-04-09T01:57:38.932Z,1.08
2023-04-09T01:57:49.442Z,1.09
2023-04-09T01:57:59.937Z,1.11
2023-04-09T01:58:10.434Z,1.09
2023-04-09T01:58:20.933Z,1.09
2023-04-09T01:58:31.444Z,1.09
2023-04-09T01:58:41.948Z,1.09
2023-04-09T01:58:52.760Z,1.11
2023-04-09T01:59:02.946Z,1.08
2023-04-09T01:59:13.453Z,1.09
2023-04-09T01:59:23.966Z,1.12
2023-04-09T01:59:34.501Z,1.09
2023-04-09T01:59:44.973Z,1.08
2023-04-09T01:59:55.483Z,1.08
2023-04-09T02:00:05.980Z,1.09
2023-04-09T02:00:16.480Z,1.08
2023-04-09T02:00:26.986Z,1.08
2023-04-09T02:00:37.494Z,1.08
2023-04-09T02:00:47.993Z,1.08
2023-04-09T02:00:58.516Z,1.08
2023-04-09T02:01:09.041Z,1.06
2023-04-09T02:01:19.532Z,1.05
2023-04-09T02:01:30.073Z,1.05
2023-04-09T02:01:40.568Z,1.04
2023-04-09T02:01:51.125Z,1.04
2023-04-09T02:02:01.590Z,1.05
2023-04-09T02:02:12.235Z,1.04
2023-04-09T02:02:22.670Z,1.04
2023-04-09T02:02:33.118Z,1.05
2023-04-09T02:02:43.610Z,1.02
2023-04-09T02:02:54.281Z,1.02
2023-04-09T02:03:04.642Z,1.00
2023-04-09T02:03:15.182Z,1.00
2023-04-09T02:03:25.614Z,1.02
2023-04-09T02:03:36.132Z,1.00
2023-04-09T02:03:46.747Z,1.00
2023-04-09T02:03:57.183Z,1.00
2023-04-09T02:04:07.608Z,0.98
2023-04-09T02:04:18.077Z,0.98
2023-04-09T02:04:28.575Z,1.02
2023-04-09T02:04:39.082Z,0.97
2023-04-09T02:04:49.585Z,0.98
2023-04-09T02:05:00.121Z,0.98
2023-04-09T02:05:10.586Z,1.00
2023-04-09T02:05:21.101Z,0.98
2023-04-09T02:05:31.605Z,1.00
2023-04-09T02:05:42.122Z,0.98
2023-04-09T02:05:52.630Z,0.98
2023-04-09T02:06:03.127Z,0.97
2023-04-09T02:06:13.623Z,1.00
2023-04-09T02:06:24.136Z,1.00
2023-04-09T02:06:34.632Z,0.98
2023-04-09T02:06:45.142Z,0.98
2023-04-09T02:06:55.653Z,0.98
2023-04-09T02:07:06.175Z,0.97
2023-04-09T02:07:16.657Z,0.98
2023-04-09T02:07:27.164Z,0.97
2023-04-09T02:07:37.675Z,0.94
2023-04-09T02:07:48.163Z,0.94
2023-04-09T02:07:58.686Z,0.93
2023-04-09T02:08:09.170Z,0.91
2023-04-09T02:08:19.680Z,0.90
2023-04-09T02:08:30.184Z,0.90
2023-04-09T02:08:40.737Z,0.91
2023-04-09T02:08:51.435Z,0.90
2023-04-09T02:09:01.698Z,0.88
2023-04-09T02:09:12.212Z,0.88
2023-04-09T02:09:22.751Z,0.90
2023-04-09T02:09:33.227Z,0.90
2023-04-09T02:09:43.730Z,0.90
2023-04-09T02:09:54.231Z,0.90
2023-04-09T02:10:04.742Z,0.90
2023-04-09T02:10:15.262Z,0.90
2023-04-09T02:10:25.750Z,0.90
2023-04-09T02:10:36.264Z,0.88
2023-04-09T02:10:46.781Z,0.87
2023-04-09T02:10:57.312Z,0.87
2023-04-09T02:11:07.814Z,0.90
2023-04-09T02:11:18.277Z,0.87
2023-04-09T02:11:28.799Z,0.87
2023-04-09T02:11:39.297Z,0.88
2023-04-09T02:11:49.804Z,0.87
2023-04-09T02:12:00.564Z,0.86
2023-04-09T02:12:10.802Z,0.83
2023-04-09T02:12:21.318Z,0.84
2023-04-09T02:12:31.835Z,0.86
2023-04-09T02:12:42.321Z,0.83
2023-04-09T02:12:52.863Z,0.83
2023-04-09T02:13:03.329Z,0.86
2023-04-09T02:13:13.839Z,0.86
2023-04-09T02:13:24.340Z,0.86
2023-04-09T02:13:34.859Z,0.86
2023-04-09T02:13:45.349Z,0.86
2023-04-09T02:13:55.841Z,0.87
2023-04-09T02:14:06.362Z,0.86
2023-04-09T02:14:16.854Z,0.87
2023-04-09T02:14:27.361Z,0.88
2023-04-09T02:14:37.867Z,0.87
2023-04-09T02:14:48.365Z,0.88
2023-04-09T02:14:58.868Z,0.90
2023-04-09T02:15:09.375Z,0.88
2023-04-09T02:15:19.877Z,0.90
2023-04-09T02:15:30.454Z,0.88
2023-04-09T02:15:40.898Z,0.88
2023-04-09T02:15:51.493Z,0.88
2023-04-09T02:16:02.051Z,0.88
2023-04-09T02:16:12.462Z,0.90
2023-04-09T02:16:22.916Z,0.88
2023-04-09T02:16:33.411Z,0.88
2023-04-09T02:16:43.913Z,0.91
2023-04-09T02:16:54.422Z,0.88
2023-04-09T02:17:04.925Z,0.90
2023-04-09T02:17:15.437Z,0.90
2023-04-09T02:17:26.021Z,0.91
2023-04-09T02:17:36.466Z,0.93
2023-04-09T02:17:47.045Z,0.96
2023-04-09T02:17:57.551Z,0.96
2023-04-09T02:18:07.964Z,0.98
2023-04-09T02:18:18.465Z,1.00
2023-04-09T02:18:28.983Z,1.02
2023-04-09T02:18:39.539Z,1.04
2023-04-09T02:18:50.331Z,1.05
2023-04-09T02:19:00.503Z,1.04
2023-04-09T02:19:10.997Z,1.04
2023-04-09T02:19:21.502Z,1.05
2023-04-09T02:19:31.991Z,1.05
2023-04-09T02:19:42.497Z,1.04
2023-04-09T02:19:52.997Z,1.00
2023-04-09T02:20:03.515Z,1.02
2023-04-09T02:20:14.006Z,1.02
2023-04-09T02:20:24.524Z,1.00
2023-04-09T02:20:35.019Z,0.98
2023-04-09T02:20:45.526Z,0.97
2023-04-09T02:20:56.019Z,0.97
2023-04-09T02:21:06.518Z,0.96
2023-04-09T02:21:17.031Z,0.94
2023-04-09T02:21:27.537Z,0.94
2023-04-09T02:21:38.046Z,0.94
2023-04-09T02:21:48.549Z,0.93
2023-04-09T02:21:59.034Z,0.94
2023-04-09T02:22:09.545Z,0.91
2023-04-09T02:22:20.060Z,0.91
2023-04-09T02:22:30.560Z,0.90
2023-04-09T02:22:41.042Z,0.91
2023-04-09T02:22:51.574Z,0.90
2023-04-09T02:23:02.075Z,0.91
2023-04-09T02:23:12.554Z,0.90
2023-04-09T02:23:23.060Z,0.88
2023-04-09T02:23:33.595Z,0.88
2023-04-09T02:23:44.090Z,0.86